sensor_id;sensor_type;location;lat;lon;timestamp;P1;durP1;ratioP1;P2;durP2;ratioP2
34775;SDS011;20989;52.566;13.346;2023-03-01T00:01:54;2.55;;;2.35;;
34775;SDS011;20989;52.566;13.346;2023-03-01T00:04:54;2.72;;;2.53;;
34775;SDS011;20989;52.566;13.346;2023-03-01T00:07:55;3.78;;;3.20;;
34775;SDS011;20989;52.566;13.346;2023-03-01T00:11:02;2.95;;;2.65;;
34775;SDS011;20989;52.566;13.346;2023-03-01T00:14:03;2.80;;;2.60;;
34775;SDS011;20989;52.566;13.346;2023-03-01T00:17:07;3.25;;;3.03;;
34775;SDS011;20989;52.566;13.346;2023-03-01T00:20:08;4.45;;;3.08;;
34775;SDS011;20989;52.566;13.346;2023-03-01T00:23:10;3.15;;;2.65;;
34775;SDS011;20989;52.566;13.346;2023-03-01T00:26:12;2.88;;;2.67;;
34775;SDS011;20989;52.566;13.346;2023-03-01T00:29:14;3.22;;;2.92;;
34775;SDS011;20989;52.566;13.346;2023-03-01T00:32:15;2.65;;;2.45;;
34775;SDS011;20989;52.566;13.346;2023-03-01T00:35:15;2.95;;;2.75;;
34775;SDS011;20989;52.566;13.346;2023-03-01T00:38:16;3.28;;;2.97;;
34775;SDS011;20989;52.566;13.346;2023-03-01T00:41:17;2.95;;;2.75;;
34775;SDS011;20989;52.566;13.346;2023-03-01T00:44:19;2.53;;;2.22;;
34775;SDS011;20989;52.566;13.346;2023-03-01T00:47:19;3.88;;;3.47;;
34775;SDS011;20989;52.566;13.346;2023-03-01T00:50:22;3.30;;;3.00;;
34775;SDS011;20989;52.566;13.346;2023-03-01T00:53:23;3.75;;;3.45;;
34775;SDS011;20989;52.566;13.346;2023-03-01T00:56:24;3.17;;;2.97;;
34775;SDS011;20989;52.566;13.346;2023-03-01T00:59:25;3.30;;;3.00;;
34775;SDS011;20989;52.566;13.346;2023-03-01T01:02:26;3.13;;;2.92;;
34775;SDS011;20989;52.566;13.346;2023-03-01T01:05:28;3.10;;;2.90;;
34775;SDS011;20989;52.566;13.346;2023-03-01T01:08:28;3.17;;;2.90;;
34775;SDS011;20989;52.566;13.346;2023-03-01T01:11:29;3.00;;;2.80;;
34775;SDS011;20989;52.566;13.346;2023-03-01T01:14:30;3.47;;;3.17;;
34775;SDS011;20989;52.566;13.346;2023-03-01T01:17:31;3.20;;;2.97;;
34775;SDS011;20989;52.566;13.346;2023-03-01T01:20:32;3.17;;;2.90;;
34775;SDS011;20989;52.566;13.346;2023-03-01T01:23:34;3.88;;;3.13;;
34775;SDS011;20989;52.566;13.346;2023-03-01T01:26:37;3.25;;;3.03;;
34775;SDS011;20989;52.566;13.346;2023-03-01T01:29:38;2.97;;;2.78;;
34775;SDS011;20989;52.566;13.346;2023-03-01T01:32:38;2.72;;;2.53;;
34775;SDS011;20989;52.566;13.346;2023-03-01T01:35:39;2.78;;;2.58;;
34775;SDS011;20989;52.566;13.346;2023-03-01T01:38:40;3.17;;;2.90;;
34775;SDS011;20989;52.566;13.346;2023-03-01T01:41:42;3.05;;;2.85;;
34775;SDS011;20989;52.566;13.346;2023-03-01T01:44:45;3.55;;;3.30;;
34775;SDS011;20989;52.566;13.346;2023-03-01T01:47:46;3.50;;;3.20;;
34775;SDS011;20989;52.566;13.346;2023-03-01T01:50:54;3.70;;;3.40;;
34775;SDS011;20989;52.566;13.346;2023-03-01T01:53:59;3.63;;;3.33;;
34775;SDS011;20989;52.566;13.346;2023-03-01T01:57:02;3.08;;;2.78;;
34775;SDS011;20989;52.566;13.346;2023-03-01T02:00:12;4.38;;;3.47;;
34775;SDS011;20989;52.566;13.346;2023-03-01T02:03:17;3.00;;;2.80;;
34775;SDS011;20989;52.566;13.346;2023-03-01T02:06:31;3.33;;;3.13;;
34775;SDS011;20989;52.566;13.346;2023-03-01T02:09:36;3.80;;;3.42;;
34775;SDS011;20989;52.566;13.346;2023-03-01T02:12:37;3.78;;;3.47;;
34775;SDS011;20989;52.566;13.346;2023-03-01T02:15:39;3.50;;;3.20;;
34775;SDS011;20989;52.566;13.346;2023-03-01T02:18:41;2.75;;;2.55;;
34775;SDS011;20989;52.566;13.346;2023-03-01T02:31:30;3.08;;;2.88;;
34775;SDS011;20989;52.566;13.346;2023-03-01T02:34:43;3.58;;;3.35;;
34775;SDS011;20989;52.566;13.346;2023-03-01T02:37:44;3.50;;;3.20;;
34775;SDS011;20989;52.566;13.346;2023-03-01T02:40:46;3.63;;;3.30;;
34775;SDS011;20989;52.566;13.346;2023-03-01T02:43:49;3.65;;;3.40;;
34775;SDS011;20989;52.566;13.346;2023-03-01T02:46:51;4.00;;;3.35;;
34775;SDS011;20989;52.566;13.346;2023-03-01T02:49:55;3.40;;;3.20;;
34775;SDS011;20989;52.566;13.346;2023-03-01T02:56:20;3.85;;;3.50;;
34775;SDS011;20989;52.566;13.346;2023-03-01T02:59:22;3.70;;;3.40;;
34775;SDS011;20989;52.566;13.346;2023-03-01T03:02:27;3.78;;;3.47;;
34775;SDS011;20989;52.566;13.346;2023-03-01T03:05:35;3.00;;;2.80;;
34775;SDS011;20989;52.566;13.346;2023-03-01T03:08:36;3.70;;;3.40;;
34775;SDS011;20989;52.566;13.346;2023-03-01T03:11:37;3.00;;;2.80;;
34775;SDS011;20989;52.566;13.346;2023-03-01T03:14:39;3.65;;;3.35;;
34775;SDS011;20989;52.566;13.346;2023-03-01T03:17:40;3.30;;;3.08;;
34775;SDS011;20989;52.566;13.346;2023-03-01T03:20:43;3.53;;;3.25;;
34775;SDS011;20989;52.566;13.346;2023-03-01T03:23:44;3.55;;;3.25;;
34775;SDS011;20989;52.566;13.346;2023-03-01T03:26:46;3.67;;;3.38;;
34775;SDS011;20989;52.566;13.346;2023-03-01T03:29:47;3.28;;;3.08;;
34775;SDS011;20989;52.566;13.346;2023-03-01T03:32:48;3.78;;;3.47;;
34775;SDS011;20989;52.566;13.346;2023-03-01T03:35:54;3.75;;;3.50;;
34775;SDS011;20989;52.566;13.346;2023-03-01T03:38:55;3.90;;;3.60;;
34775;SDS011;20989;52.566;13.346;2023-03-01T03:41:55;3.70;;;3.40;;
34775;SDS011;20989;52.566;13.346;2023-03-01T03:44:56;3.67;;;3.13;;
34775;SDS011;20989;52.566;13.346;2023-03-01T03:47:57;3.58;;;3.35;;
34775;SDS011;20989;52.566;13.346;2023-03-01T03:50:57;3.67;;;3.38;;
34775;SDS011;20989;52.566;13.346;2023-03-01T03:53:58;3.85;;;3.55;;
34775;SDS011;20989;52.566;13.346;2023-03-01T03:56:59;3.50;;;3.30;;
34775;SDS011;20989;52.566;13.346;2023-03-01T03:59:59;3.72;;;3.42;;
34775;SDS011;20989;52.566;13.346;2023-03-01T04:03:00;3.17;;;2.97;;
34775;SDS011;20989;52.566;13.346;2023-03-01T04:06:01;3.58;;;3.28;;
34775;SDS011;20989;52.566;13.346;2023-03-01T04:09:02;3.55;;;3.30;;
34775;SDS011;20989;52.566;13.346;2023-03-01T04:12:03;3.78;;;3.47;;
34775;SDS011;20989;52.566;13.346;2023-03-01T04:15:05;3.63;;;3.33;;
34775;SDS011;20989;52.566;13.346;2023-03-01T04:18:14;3.58;;;3.28;;
34775;SDS011;20989;52.566;13.346;2023-03-01T04:21:16;3.55;;;3.25;;
34775;SDS011;20989;52.566;13.346;2023-03-01T04:24:16;3.15;;;2.95;;
34775;SDS011;20989;52.566;13.346;2023-03-01T04:27:17;3.53;;;3.22;;
34775;SDS011;20989;52.566;13.346;2023-03-01T04:30:18;4.05;;;3.75;;
34775;SDS011;20989;52.566;13.346;2023-03-01T04:33:18;3.38;;;3.17;;
34775;SDS011;20989;52.566;13.346;2023-03-01T04:36:21;4.25;;;3.85;;
34775;SDS011;20989;52.566;13.346;2023-03-01T04:39:26;3.67;;;3.45;;
34775;SDS011;20989;52.566;13.346;2023-03-01T04:42:26;4.63;;;4.22;;
34775;SDS011;20989;52.566;13.346;2023-03-01T04:45:27;4.00;;;3.55;;
34775;SDS011;20989;52.566;13.346;2023-03-01T04:48:28;3.78;;;3.47;;
34775;SDS011;20989;52.566;13.346;2023-03-01T04:51:29;3.85;;;3.55;;
34775;SDS011;20989;52.566;13.346;2023-03-01T04:54:32;3.72;;;3.42;;
34775;SDS011;20989;52.566;13.346;2023-03-01T04:57:34;3.78;;;3.47;;
34775;SDS011;20989;52.566;13.346;2023-03-01T05:00:35;3.28;;;3.08;;
34775;SDS011;20989;52.566;13.346;2023-03-01T05:03:35;4.30;;;3.95;;
34775;SDS011;20989;52.566;13.346;2023-03-01T05:06:37;3.38;;;3.15;;
34775;SDS011;20989;52.566;13.346;2023-03-01T05:09:37;3.80;;;3.50;;
34775;SDS011;20989;52.566;13.346;2023-03-01T05:12:38;3.60;;;3.30;;
34775;SDS011;20989;52.566;13.346;2023-03-01T05:15:39;3.95;;;3.65;;
34775;SDS011;20989;52.566;13.346;2023-03-01T05:18:40;4.13;;;3.83;;
34775;SDS011;20989;52.566;13.346;2023-03-01T05:21:42;4.30;;;3.90;;
34775;SDS011;20989;52.566;13.346;2023-03-01T05:25:03;3.78;;;3.47;;
34775;SDS011;20989;52.566;13.346;2023-03-01T05:28:04;3.83;;;3.53;;
34775;SDS011;20989;52.566;13.346;2023-03-01T05:31:06;4.18;;;3.88;;
34775;SDS011;20989;52.566;13.346;2023-03-01T05:34:09;4.40;;;4.00;;
34775;SDS011;20989;52.566;13.346;2023-03-01T05:37:13;4.30;;;3.88;;
34775;SDS011;20989;52.566;13.346;2023-03-01T05:40:16;3.63;;;3.33;;
34775;SDS011;20989;52.566;13.346;2023-03-01T05:43:21;4.05;;;3.75;;
34775;SDS011;20989;52.566;13.346;2023-03-01T05:46:21;3.80;;;3.50;;
34775;SDS011;20989;52.566;13.346;2023-03-01T05:49:25;3.45;;;3.25;;
34775;SDS011;20989;52.566;13.346;2023-03-01T05:52:25;4.18;;;3.88;;
34775;SDS011;20989;52.566;13.346;2023-03-01T05:55:27;4.18;;;3.83;;
34775;SDS011;20989;52.566;13.346;2023-03-01T05:58:29;3.70;;;3.40;;
34775;SDS011;20989;52.566;13.346;2023-03-01T06:01:30;3.83;;;3.53;;
34775;SDS011;20989;52.566;13.346;2023-03-01T06:04:31;3.75;;;3.45;;
34775;SDS011;20989;52.566;13.346;2023-03-01T06:07:32;4.15;;;3.85;;
34775;SDS011;20989;52.566;13.346;2023-03-01T06:10:32;4.07;;;3.72;;
34775;SDS011;20989;52.566;13.346;2023-03-01T06:13:33;5.68;;;4.72;;
34775;SDS011;20989;52.566;13.346;2023-03-01T06:16:34;5.10;;;4.60;;
34775;SDS011;20989;52.566;13.346;2023-03-01T06:19:34;6.28;;;5.45;;
34775;SDS011;20989;52.566;13.346;2023-03-01T06:22:35;6.28;;;4.75;;
34775;SDS011;20989;52.566;13.346;2023-03-01T06:25:36;6.80;;;5.13;;
34775;SDS011;20989;52.566;13.346;2023-03-01T06:28:37;12.52;;;5.28;;
34775;SDS011;20989;52.566;13.346;2023-03-01T06:31:38;8.45;;;5.20;;
34775;SDS011;20989;52.566;13.346;2023-03-01T06:34:38;5.10;;;4.00;;
34775;SDS011;20989;52.566;13.346;2023-03-01T06:37:40;4.90;;;4.40;;
34775;SDS011;20989;52.566;13.346;2023-03-01T06:40:41;6.70;;;4.50;;
34775;SDS011;20989;52.566;13.346;2023-03-01T06:43:42;8.75;;;5.03;;
34775;SDS011;20989;52.566;13.346;2023-03-01T06:46:42;6.95;;;4.50;;
34775;SDS011;20989;52.566;13.346;2023-03-01T06:49:43;7.28;;;4.88;;
34775;SDS011;20989;52.566;13.346;2023-03-01T06:52:44;5.88;;;4.25;;
34775;SDS011;20989;52.566;13.346;2023-03-01T06:55:45;4.88;;;4.07;;
34775;SDS011;20989;52.566;13.346;2023-03-01T06:58:45;4.95;;;4.43;;
34775;SDS011;20989;52.566;13.346;2023-03-01T07:01:46;5.15;;;4.53;;
34775;SDS011;20989;52.566;13.346;2023-03-01T07:04:48;5.55;;;4.85;;
34775;SDS011;20989;52.566;13.346;2023-03-01T07:07:51;5.40;;;4.80;;
34775;SDS011;20989;52.566;13.346;2023-03-01T07:10:56;7.97;;;4.82;;
34775;SDS011;20989;52.566;13.346;2023-03-01T07:13:58;6.75;;;5.03;;
34775;SDS011;20989;52.566;13.346;2023-03-01T07:17:00;6.07;;;4.78;;
34775;SDS011;20989;52.566;13.346;2023-03-01T07:20:00;8.60;;;4.38;;
34775;SDS011;20989;52.566;13.346;2023-03-01T07:23:01;6.22;;;5.05;;
34775;SDS011;20989;52.566;13.346;2023-03-01T07:26:02;5.75;;;4.60;;
34775;SDS011;20989;52.566;13.346;2023-03-01T07:29:04;8.45;;;4.47;;
34775;SDS011;20989;52.566;13.346;2023-03-01T07:32:06;5.15;;;4.65;;
34775;SDS011;20989;52.566;13.346;2023-03-01T07:35:07;7.93;;;4.55;;
34775;SDS011;20989;52.566;13.346;2023-03-01T07:38:08;4.43;;;4.03;;
34775;SDS011;20989;52.566;13.346;2023-03-01T07:41:09;8.55;;;4.97;;
34775;SDS011;20989;52.566;13.346;2023-03-01T07:44:10;5.22;;;4.72;;
34775;SDS011;20989;52.566;13.346;2023-03-01T07:47:11;5.45;;;4.78;;
34775;SDS011;20989;52.566;13.346;2023-03-01T07:50:11;4.90;;;4.43;;
34775;SDS011;20989;52.566;13.346;2023-03-01T07:53:13;6.55;;;4.70;;
34775;SDS011;20989;52.566;13.346;2023-03-01T07:56:14;5.80;;;4.60;;
34775;SDS011;20989;52.566;13.346;2023-03-01T07:59:18;6.68;;;5.10;;
34775;SDS011;20989;52.566;13.346;2023-03-01T08:02:18;5.90;;;4.75;;
34775;SDS011;20989;52.566;13.346;2023-03-01T08:05:20;11.00;;;4.38;;
34775;SDS011;20989;52.566;13.346;2023-03-01T08:08:22;7.40;;;4.28;;
34775;SDS011;20989;52.566;13.346;2023-03-01T08:11:22;5.82;;;5.15;;
34775;SDS011;20989;52.566;13.346;2023-03-01T08:14:23;4.93;;;4.25;;
34775;SDS011;20989;52.566;13.346;2023-03-01T08:17:24;5.55;;;4.75;;
34775;SDS011;20989;52.566;13.346;2023-03-01T08:20:24;5.38;;;4.65;;
34775;SDS011;20989;52.566;13.346;2023-03-01T08:23:25;4.68;;;4.32;;
34775;SDS011;20989;52.566;13.346;2023-03-01T08:26:26;4.82;;;4.22;;
34775;SDS011;20989;52.566;13.346;2023-03-01T08:29:27;4.57;;;4.20;;
34775;SDS011;20989;52.566;13.346;2023-03-01T08:32:34;4.38;;;3.97;;
34775;SDS011;20989;52.566;13.346;2023-03-01T08:35:36;4.57;;;4.18;;
34775;SDS011;20989;52.566;13.346;2023-03-01T08:38:37;4.70;;;4.30;;
34775;SDS011;20989;52.566;13.346;2023-03-01T08:41:37;4.68;;;4.25;;
34775;SDS011;20989;52.566;13.346;2023-03-01T08:44:38;4.80;;;4.40;;
34775;SDS011;20989;52.566;13.346;2023-03-01T08:47:39;4.97;;;4.32;;
34775;SDS011;20989;52.566;13.346;2023-03-01T08:50:39;6.97;;;4.40;;
34775;SDS011;20989;52.566;13.346;2023-03-01T08:53:41;5.88;;;4.13;;
34775;SDS011;20989;52.566;13.346;2023-03-01T08:56:42;3.90;;;3.47;;
34775;SDS011;20989;52.566;13.346;2023-03-01T08:59:43;4.20;;;3.80;;
34775;SDS011;20989;52.566;13.346;2023-03-01T09:02:44;4.30;;;3.90;;
34775;SDS011;20989;52.566;13.346;2023-03-01T09:05:46;3.88;;;3.58;;
34775;SDS011;20989;52.566;13.346;2023-03-01T09:08:47;4.22;;;3.83;;
34775;SDS011;20989;52.566;13.346;2023-03-01T09:11:49;4.30;;;3.88;;
34775;SDS011;20989;52.566;13.346;2023-03-01T09:14:50;4.28;;;3.97;;
34775;SDS011;20989;52.566;13.346;2023-03-01T09:17:51;4.30;;;4.00;;
34775;SDS011;20989;52.566;13.346;2023-03-01T09:20:52;4.63;;;4.22;;
34775;SDS011;20989;52.566;13.346;2023-03-01T09:23:55;4.20;;;3.65;;
34775;SDS011;20989;52.566;13.346;2023-03-01T09:26:57;5.13;;;3.72;;
34775;SDS011;20989;52.566;13.346;2023-03-01T09:29:57;4.40;;;4.00;;
34775;SDS011;20989;52.566;13.346;2023-03-01T09:32:58;4.75;;;3.58;;
34775;SDS011;20989;52.566;13.346;2023-03-01T09:35:59;3.63;;;3.33;;
34775;SDS011;20989;52.566;13.346;2023-03-01T09:39:02;4.65;;;3.35;;
34775;SDS011;20989;52.566;13.346;2023-03-01T09:42:10;3.90;;;3.60;;
34775;SDS011;20989;52.566;13.346;2023-03-01T09:45:21;3.58;;;3.28;;
34775;SDS011;20989;52.566;13.346;2023-03-01T09:48:40;6.20;;;3.60;;
34775;SDS011;20989;52.566;13.346;2023-03-01T09:54:55;3.90;;;3.50;;
34775;SDS011;20989;52.566;13.346;2023-03-01T09:57:59;4.03;;;3.63;;
34775;SDS011;20989;52.566;13.346;2023-03-01T10:08:27;3.85;;;3.50;;
34775;SDS011;20989;52.566;13.346;2023-03-01T10:11:41;3.88;;;3.58;;
34775;SDS011;20989;52.566;13.346;2023-03-01T10:18:00;3.65;;;3.35;;
34775;SDS011;20989;52.566;13.346;2023-03-01T10:21:17;6.07;;;3.53;;
34775;SDS011;20989;52.566;13.346;2023-03-01T10:24:19;5.28;;;3.45;;
34775;SDS011;20989;52.566;13.346;2023-03-01T10:27:25;3.33;;;3.03;;
34775;SDS011;20989;52.566;13.346;2023-03-01T10:30:35;6.32;;;4.30;;
34775;SDS011;20989;52.566;13.346;2023-03-01T10:33:39;7.30;;;4.18;;
34775;SDS011;20989;52.566;13.346;2023-03-01T10:36:42;7.38;;;5.28;;
34775;SDS011;20989;52.566;13.346;2023-03-01T10:42:58;7.10;;;4.57;;
34775;SDS011;20989;52.566;13.346;2023-03-01T10:46:01;9.82;;;5.47;;
34775;SDS011;20989;52.566;13.346;2023-03-01T10:52:21;9.43;;;6.10;;
34775;SDS011;20989;52.566;13.346;2023-03-01T10:58:35;6.70;;;4.78;;
34775;SDS011;20989;52.566;13.346;2023-03-01T11:01:37;8.73;;;5.47;;
34775;SDS011;20989;52.566;13.346;2023-03-01T11:04:39;7.57;;;4.82;;
34775;SDS011;20989;52.566;13.346;2023-03-01T11:10:50;8.50;;;4.45;;
34775;SDS011;20989;52.566;13.346;2023-03-01T11:20:40;6.40;;;4.25;;
34775;SDS011;20989;52.566;13.346;2023-03-01T11:23:42;7.50;;;4.57;;
34775;SDS011;20989;52.566;13.346;2023-03-01T11:26:47;5.15;;;4.13;;
34775;SDS011;20989;52.566;13.346;2023-03-01T11:30:04;5.25;;;3.83;;
34775;SDS011;20989;52.566;13.346;2023-03-01T11:36:48;4.75;;;3.70;;
34775;SDS011;20989;52.566;13.346;2023-03-01T11:43:15;6.07;;;3.92;;
34775;SDS011;20989;52.566;13.346;2023-03-01T11:53:34;8.70;;;4.10;;
34775;SDS011;20989;52.566;13.346;2023-03-01T12:00:18;11.52;;;5.50;;
34775;SDS011;20989;52.566;13.346;2023-03-01T12:10:57;9.15;;;4.00;;
34775;SDS011;20989;52.566;13.346;2023-03-01T12:28:04;17.77;;;5.40;;
34775;SDS011;20989;52.566;13.346;2023-03-01T12:31:53;11.50;;;6.68;;
34775;SDS011;20989;52.566;13.346;2023-03-01T12:34:41;15.68;;;7.47;;
34775;SDS011;20989;52.566;13.346;2023-03-01T12:41:15;13.52;;;6.53;;
34775;SDS011;20989;52.566;13.346;2023-03-01T12:48:07;14.98;;;7.63;;
34775;SDS011;20989;52.566;13.346;2023-03-01T12:51:44;11.32;;;6.00;;
34775;SDS011;20989;52.566;13.346;2023-03-01T12:54:54;12.48;;;6.18;;
34775;SDS011;20989;52.566;13.346;2023-03-01T12:58:03;12.18;;;5.30;;
34775;SDS011;20989;52.566;13.346;2023-03-01T13:08:27;15.70;;;5.55;;
34775;SDS011;20989;52.566;13.346;2023-03-01T13:11:34;7.47;;;5.00;;
34775;SDS011;20989;52.566;13.346;2023-03-01T13:14:36;9.82;;;5.38;;
34775;SDS011;20989;52.566;13.346;2023-03-01T13:17:44;8.32;;;5.47;;
34775;SDS011;20989;52.566;13.346;2023-03-01T13:20:47;9.18;;;5.20;;
34775;SDS011;20989;52.566;13.346;2023-03-01T13:23:49;7.35;;;4.53;;
34775;SDS011;20989;52.566;13.346;2023-03-01T13:30:38;7.38;;;4.35;;
34775;SDS011;20989;52.566;13.346;2023-03-01T13:33:41;7.28;;;4.13;;
34775;SDS011;20989;52.566;13.346;2023-03-01T13:39:43;6.88;;;4.57;;
34775;SDS011;20989;52.566;13.346;2023-03-01T13:42:44;5.65;;;4.35;;
34775;SDS011;20989;52.566;13.346;2023-03-01T13:45:47;7.25;;;4.45;;
34775;SDS011;20989;52.566;13.346;2023-03-01T13:48:52;7.38;;;4.85;;
34775;SDS011;20989;52.566;13.346;2023-03-01T13:54:57;6.47;;;4.53;;
34775;SDS011;20989;52.566;13.346;2023-03-01T13:57:59;7.68;;;4.57;;
34775;SDS011;20989;52.566;13.346;2023-03-01T14:01:05;6.88;;;4.60;;
34775;SDS011;20989;52.566;13.346;2023-03-01T14:04:25;8.25;;;4.75;;
34775;SDS011;20989;52.566;13.346;2023-03-01T14:07:31;6.93;;;4.55;;
34775;SDS011;20989;52.566;13.346;2023-03-01T14:10:39;9.48;;;5.32;;
34775;SDS011;20989;52.566;13.346;2023-03-01T14:20:38;7.20;;;4.85;;
34775;SDS011;20989;52.566;13.346;2023-03-01T14:23:41;8.75;;;5.32;;
34775;SDS011;20989;52.566;13.346;2023-03-01T14:26:42;7.75;;;4.28;;
34775;SDS011;20989;52.566;13.346;2023-03-01T14:29:43;8.18;;;4.57;;
34775;SDS011;20989;52.566;13.346;2023-03-01T14:32:57;5.47;;;4.10;;
34775;SDS011;20989;52.566;13.346;2023-03-01T14:36:07;7.63;;;4.68;;
34775;SDS011;20989;52.566;13.346;2023-03-01T14:39:17;6.88;;;4.40;;
34775;SDS011;20989;52.566;13.346;2023-03-01T14:42:20;11.25;;;5.32;;
34775;SDS011;20989;52.566;13.346;2023-03-01T14:45:24;12.43;;;5.50;;
34775;SDS011;20989;52.566;13.346;2023-03-01T14:48:26;9.00;;;5.10;;
34775;SDS011;20989;52.566;13.346;2023-03-01T14:51:28;6.72;;;5.07;;
34775;SDS011;20989;52.566;13.346;2023-03-01T14:57:46;11.68;;;5.93;;
34775;SDS011;20989;52.566;13.346;2023-03-01T15:00:49;6.20;;;4.60;;
34775;SDS011;20989;52.566;13.346;2023-03-01T15:03:55;10.48;;;5.70;;
34775;SDS011;20989;52.566;13.346;2023-03-01T15:06:56;10.55;;;5.88;;
34775;SDS011;20989;52.566;13.346;2023-03-01T15:10:05;11.02;;;5.47;;
34775;SDS011;20989;52.566;13.346;2023-03-01T15:13:11;10.27;;;5.95;;
34775;SDS011;20989;52.566;13.346;2023-03-01T15:16:31;18.67;;;8.60;;
34775;SDS011;20989;52.566;13.346;2023-03-01T15:19:33;14.93;;;6.90;;
34775;SDS011;20989;52.566;13.346;2023-03-01T15:22:35;12.88;;;7.18;;
34775;SDS011;20989;52.566;13.346;2023-03-01T15:25:36;17.85;;;9.32;;
34775;SDS011;20989;52.566;13.346;2023-03-01T15:28:42;21.40;;;9.77;;
34775;SDS011;20989;52.566;13.346;2023-03-01T15:32:33;18.83;;;8.73;;
34775;SDS011;20989;52.566;13.346;2023-03-01T15:35:38;25.15;;;11.32;;
34775;SDS011;20989;52.566;13.346;2023-03-01T15:38:55;36.65;;;15.02;;
34775;SDS011;20989;52.566;13.346;2023-03-01T15:41:58;48.13;;;19.98;;
34775;SDS011;20989;52.566;13.346;2023-03-01T15:45:10;91.47;;;33.33;;
34775;SDS011;20989;52.566;13.346;2023-03-01T15:48:19;136.30;;;47.60;;
34775;SDS011;20989;52.566;13.346;2023-03-01T15:51:22;91.63;;;34.47;;
34775;SDS011;20989;52.566;13.346;2023-03-01T15:54:29;121.05;;;43.65;;
34775;SDS011;20989;52.566;13.346;2023-03-01T15:57:30;111.32;;;41.03;;
34775;SDS011;20989;52.566;13.346;2023-03-01T16:00:31;100.15;;;39.78;;
34775;SDS011;20989;52.566;13.346;2023-03-01T16:03:31;103.72;;;39.65;;
34775;SDS011;20989;52.566;13.346;2023-03-01T16:06:32;93.82;;;37.40;;
34775;SDS011;20989;52.566;13.346;2023-03-01T16:09:33;99.68;;;37.47;;
34775;SDS011;20989;52.566;13.346;2023-03-01T16:12:33;97.50;;;38.92;;
34775;SDS011;20989;52.566;13.346;2023-03-01T16:15:34;98.03;;;38.17;;
34775;SDS011;20989;52.566;13.346;2023-03-01T16:18:35;94.35;;;35.17;;
34775;SDS011;20989;52.566;13.346;2023-03-01T16:21:36;91.43;;;35.22;;
34775;SDS011;20989;52.566;13.346;2023-03-01T16:24:37;88.75;;;34.70;;
34775;SDS011;20989;52.566;13.346;2023-03-01T16:27:38;83.90;;;33.25;;
34775;SDS011;20989;52.566;13.346;2023-03-01T16:30:47;81.53;;;31.85;;
34775;SDS011;20989;52.566;13.346;2023-03-01T16:33:48;75.55;;;30.25;;
34775;SDS011;20989;52.566;13.346;2023-03-01T16:36:51;70.20;;;29.88;;
34775;SDS011;20989;52.566;13.346;2023-03-01T16:39:52;65.97;;;28.88;;
34775;SDS011;20989;52.566;13.346;2023-03-01T16:42:54;78.53;;;29.45;;
34775;SDS011;20989;52.566;13.346;2023-03-01T16:45:59;65.68;;;27.10;;
34775;SDS011;20989;52.566;13.346;2023-03-01T16:49:00;66.03;;;27.08;;
34775;SDS011;20989;52.566;13.346;2023-03-01T16:52:01;64.03;;;25.52;;
34775;SDS011;20989;52.566;13.346;2023-03-01T16:55:02;58.88;;;24.40;;
34775;SDS011;20989;52.566;13.346;2023-03-01T16:58:04;56.30;;;22.52;;
34775;SDS011;20989;52.566;13.346;2023-03-01T17:04:10;50.25;;;19.67;;
34775;SDS011;20989;52.566;13.346;2023-03-01T17:07:12;43.75;;;18.05;;
34775;SDS011;20989;52.566;13.346;2023-03-01T17:10:13;42.70;;;18.00;;
34775;SDS011;20989;52.566;13.346;2023-03-01T17:13:14;47.03;;;17.83;;
34775;SDS011;20989;52.566;13.346;2023-03-01T17:16:16;38.78;;;17.42;;
34775;SDS011;20989;52.566;13.346;2023-03-01T17:19:19;38.65;;;15.90;;
34775;SDS011;20989;52.566;13.346;2023-03-01T17:22:19;36.30;;;16.30;;
34775;SDS011;20989;52.566;13.346;2023-03-01T17:25:20;40.95;;;15.00;;
34775;SDS011;20989;52.566;13.346;2023-03-01T17:28:25;46.90;;;14.88;;
34775;SDS011;20989;52.566;13.346;2023-03-01T17:31:28;34.40;;;14.30;;
34775;SDS011;20989;52.566;13.346;2023-03-01T17:34:29;38.13;;;13.98;;
34775;SDS011;20989;52.566;13.346;2023-03-01T17:37:31;58.40;;;15.05;;
34775;SDS011;20989;52.566;13.346;2023-03-01T17:40:32;26.27;;;11.75;;
34775;SDS011;20989;52.566;13.346;2023-03-01T17:43:35;34.78;;;12.15;;
34775;SDS011;20989;52.566;13.346;2023-03-01T17:46:36;38.45;;;12.55;;
34775;SDS011;20989;52.566;13.346;2023-03-01T17:49:37;37.95;;;13.90;;
34775;SDS011;20989;52.566;13.346;2023-03-01T17:52:37;39.38;;;12.35;;
34775;SDS011;20989;52.566;13.346;2023-03-01T17:55:39;38.92;;;12.20;;
34775;SDS011;20989;52.566;13.346;2023-03-01T17:58:40;32.13;;;12.35;;
34775;SDS011;20989;52.566;13.346;2023-03-01T18:01:41;32.38;;;12.43;;
34775;SDS011;20989;52.566;13.346;2023-03-01T18:04:42;41.58;;;11.02;;
34775;SDS011;20989;52.566;13.346;2023-03-01T18:07:43;38.10;;;12.65;;
34775;SDS011;20989;52.566;13.346;2023-03-01T18:10:44;37.33;;;11.20;;
34775;SDS011;20989;52.566;13.346;2023-03-01T18:13:45;62.03;;;11.95;;
34775;SDS011;20989;52.566;13.346;2023-03-01T18:16:46;31.48;;;11.27;;
34775;SDS011;20989;52.566;13.346;2023-03-01T18:19:47;43.50;;;10.75;;
34775;SDS011;20989;52.566;13.346;2023-03-01T18:22:48;27.17;;;9.75;;
34775;SDS011;20989;52.566;13.346;2023-03-01T18:25:50;30.13;;;9.88;;
34775;SDS011;20989;52.566;13.346;2023-03-01T18:28:52;48.53;;;10.30;;
34775;SDS011;20989;52.566;13.346;2023-03-01T18:31:53;34.42;;;8.88;;
34775;SDS011;20989;52.566;13.346;2023-03-01T18:34:54;24.73;;;8.68;;
34775;SDS011;20989;52.566;13.346;2023-03-01T18:37:55;29.23;;;8.68;;
34775;SDS011;20989;52.566;13.346;2023-03-01T18:40:55;22.33;;;8.38;;
34775;SDS011;20989;52.566;13.346;2023-03-01T18:43:56;21.60;;;8.13;;
34775;SDS011;20989;52.566;13.346;2023-03-01T18:46:58;18.08;;;8.15;;
34775;SDS011;20989;52.566;13.346;2023-03-01T18:49:58;25.67;;;8.48;;
34775;SDS011;20989;52.566;13.346;2023-03-01T18:52:59;20.98;;;8.00;;
34775;SDS011;20989;52.566;13.346;2023-03-01T18:56:01;19.20;;;8.07;;
34775;SDS011;20989;52.566;13.346;2023-03-01T18:59:02;16.75;;;7.30;;
34775;SDS011;20989;52.566;13.346;2023-03-01T19:02:03;25.85;;;7.72;;
34775;SDS011;20989;52.566;13.346;2023-03-01T19:05:05;16.65;;;7.35;;
34775;SDS011;20989;52.566;13.346;2023-03-01T19:08:06;20.90;;;6.53;;
34775;SDS011;20989;52.566;13.346;2023-03-01T19:11:06;27.83;;;8.35;;
34775;SDS011;20989;52.566;13.346;2023-03-01T19:14:09;23.40;;;6.63;;
34775;SDS011;20989;52.566;13.346;2023-03-01T19:17:10;24.80;;;6.80;;
34775;SDS011;20989;52.566;13.346;2023-03-01T19:20:11;29.65;;;7.30;;
34775;SDS011;20989;52.566;13.346;2023-03-01T19:23:11;34.00;;;8.20;;
34775;SDS011;20989;52.566;13.346;2023-03-01T19:26:13;60.67;;;8.93;;
34775;SDS011;20989;52.566;13.346;2023-03-01T19:29:15;33.35;;;7.47;;
34775;SDS011;20989;52.566;13.346;2023-03-01T19:32:15;39.33;;;7.30;;
34775;SDS011;20989;52.566;13.346;2023-03-01T19:35:16;22.90;;;5.95;;
34775;SDS011;20989;52.566;13.346;2023-03-01T19:38:17;25.42;;;5.63;;
34775;SDS011;20989;52.566;13.346;2023-03-01T19:41:18;30.33;;;6.82;;
34775;SDS011;20989;52.566;13.346;2023-03-01T19:44:21;52.95;;;7.97;;
34775;SDS011;20989;52.566;13.346;2023-03-01T19:47:25;28.65;;;6.03;;
34775;SDS011;20989;52.566;13.346;2023-03-01T19:50:25;33.33;;;6.78;;
34775;SDS011;20989;52.566;13.346;2023-03-01T19:53:26;13.80;;;5.60;;
34775;SDS011;20989;52.566;13.346;2023-03-01T19:56:27;19.02;;;5.97;;
34775;SDS011;20989;52.566;13.346;2023-03-01T19:59:28;14.45;;;4.72;;
34775;SDS011;20989;52.566;13.346;2023-03-01T20:02:29;16.60;;;5.68;;